Time;durP1;ratioP1;P1;durP2;ratioP2;P2;SDS_P1;SDS_P2;PMS_P1;PMS_P2;Temp;Humidity;BMP_temperature;BMP_pressure;BME280_temperature;BME280_humidity;BME280_pressure;Samples;Min_cycle;Max_cycle;Signal;HPM_P1;HPM_P2
2021/12/07 00:00:43;0.00;0.00;0.62;0.00;0.00;0.62;2.80;2.07;;;21.10;27.60;;;;;;2265825;61;20407;-60
2021/12/07 00:03:27;0.00;0.00;0.62;0.00;0.00;0.62;3.00;2.20;;;21.10;27.60;;;;;;2265551;61;20605;-57
2021/12/07 00:06:13;0.00;0.00;0.62;0.00;0.00;0.62;2.83;2.30;;;21.10;27.60;;;;;;2265282;61;20368;-57
2021/12/07 00:08:59;0.00;0.00;0.62;0.00;0.00;0.62;2.80;1.83;;;21.10;27.60;;;;;;2265130;61;20362;-57
2021/12/07 00:11:46;0.00;0.00;0.62;0.00;0.00;0.62;2.70;2.00;;;21.20;27.70;;;;;;2265050;61;20420;-58
2021/12/07 00:14:39;0.00;0.00;0.62;0.00;0.00;0.62;3.23;2.37;;;21.10;27.60;;;;;;2265603;61;20720;-59
2021/12/07 00:17:24;0.00;0.00;0.62;0.00;0.00;0.62;3.60;2.20;;;21.10;27.60;;;;;;2264934;61;20412;-59
2021/12/07 00:20:14;0.00;0.00;0.62;0.00;0.00;0.62;2.47;1.83;;;21.10;27.60;;;;;;2264708;61;20389;-58
2021/12/07 00:23:05;0.00;0.00;0.62;0.00;0.00;0.62;3.63;2.60;;;21.10;28.20;;;;;;2265831;61;20357;-60
2021/12/07 00:25:50;0.00;0.00;0.62;0.00;0.00;0.62;2.70;2.00;;;21.20;27.70;;;;;;2265042;61;20365;-60
2021/12/07 00:28:34;0.00;0.00;0.62;0.00;0.00;0.62;2.60;2.37;;;21.10;27.50;;;;;;2265246;61;20385;-60
2021/12/07 00:31:28;0.00;0.00;0.62;0.00;0.00;0.62;3.30;2.53;;;21.20;27.40;;;;;;2265333;61;20680;-57
2021/12/07 00:34:27;0.00;0.00;0.62;0.00;0.00;0.62;4.13;2.70;;;21.20;27.40;;;;;;2265164;61;20361;-58
2021/12/07 00:37:11;0.00;0.00;0.62;0.00;0.00;0.62;3.23;2.40;;;21.10;27.40;;;;;;2265852;61;20349;-58
2021/12/07 00:39:58;0.00;0.00;0.62;0.00;0.00;0.62;2.80;2.23;;;21.10;27.40;;;;;;2265173;61;20816;-58
2021/12/07 00:42:43;0.00;0.00;0.62;0.00;0.00;0.62;2.40;2.13;;;21.10;27.40;;;;;;2264682;61;20472;-59
2021/12/07 00:45:31;0.00;0.00;0.62;0.00;0.00;0.62;3.80;2.00;;;21.10;27.40;;;;;;2265613;61;20407;-60
2021/12/07 00:48:17;0.00;0.00;0.62;0.00;0.00;0.62;4.00;2.13;;;21.10;27.40;;;;;;2265086;61;20384;-59
2021/12/07 00:51:02;0.00;0.00;0.62;0.00;0.00;0.62;2.90;2.13;;;21.10;27.40;;;;;;2265482;61;20634;-59
2021/12/07 00:53:48;0.00;0.00;0.62;0.00;0.00;0.62;3.30;2.13;;;21.20;27.50;;;;;;2262092;61;20450;-61
2021/12/07 00:56:35;0.00;0.00;0.62;0.00;0.00;0.62;4.50;2.10;;;21.20;27.60;;;;;;2265302;61;20370;-61
2021/12/07 00:59:19;0.00;0.00;0.62;0.00;0.00;0.62;4.10;2.30;;;21.20;27.70;;;;;;2265377;61;20700;-63
2021/12/07 01:02:04;0.00;0.00;0.62;0.00;0.00;0.62;3.30;2.27;;;21.20;27.70;;;;;;2262131;61;20353;-60
2021/12/07 01:04:57;0.00;0.00;0.62;0.00;0.00;0.62;2.40;1.77;;;21.20;27.70;;;;;;2261745;61;20732;-63
2021/12/07 01:25:47;0.00;0.00;0.62;0.00;0.00;0.62;4.00;1.90;;;21.20;27.80;;;;;;2265144;61;20376;-60
2021/12/07 01:28:41;0.00;0.00;0.62;0.00;0.00;0.62;4.80;2.40;;;21.20;27.80;;;;;;2261988;61;20393;-61
2021/12/07 01:31:33;0.00;0.00;0.62;0.00;0.00;0.62;2.87;2.10;;;21.20;27.80;;;;;;2261920;61;20436;-60
2021/12/07 01:37:16;0.00;0.00;0.62;0.00;0.00;0.62;3.73;2.17;;;21.20;27.70;;;;;;2262345;61;20399;-60
2021/12/07 01:43:27;0.00;0.00;0.62;0.00;0.00;0.62;2.50;1.70;;;21.20;27.70;;;;;;2265433;61;20369;-60
2021/12/07 01:50:07;0.00;0.00;0.62;0.00;0.00;0.62;2.30;1.77;;;21.30;27.70;;;;;;2261414;61;20456;-60
2021/12/07 02:01:10;0.00;0.00;0.62;0.00;0.00;0.62;3.77;2.47;;;21.30;27.70;;;;;;2261921;61;20397;-60
2021/12/07 02:03:55;0.00;0.00;0.62;0.00;0.00;0.62;2.63;1.97;;;21.30;27.70;;;;;;2261753;61;20365;-60
2021/12/07 02:06:41;0.00;0.00;0.62;0.00;0.00;0.62;2.40;1.63;;;21.30;27.70;;;;;;2262336;61;20397;-60
2021/12/07 02:09:27;0.00;0.00;0.62;0.00;0.00;0.62;2.77;2.00;;;21.30;27.60;;;;;;2261415;61;20393;-60
2021/12/07 02:12:14;0.00;0.00;0.62;0.00;0.00;0.62;2.23;1.43;;;21.30;27.60;;;;;;2262127;61;20411;-60
2021/12/07 02:15:00;0.00;0.00;0.62;0.00;0.00;0.62;3.17;2.13;;;21.30;27.60;;;;;;2261903;61;20399;-60
2021/12/07 02:17:47;0.00;0.00;0.62;0.00;0.00;0.62;2.00;1.37;;;21.30;27.60;;;;;;2261901;61;20353;-60
2021/12/07 02:20:32;0.00;0.00;0.62;0.00;0.00;0.62;2.53;1.90;;;21.30;27.70;;;;;;2265090;61;20397;-60
2021/12/07 02:23:19;0.00;0.00;0.62;0.00;0.00;0.62;2.50;1.90;;;21.30;27.60;;;;;;2261938;61;20554;-61
2021/12/07 02:26:04;0.00;0.00;0.62;0.00;0.00;0.62;2.90;2.40;;;21.30;28.20;;;;;;2261602;61;20584;-61
2021/12/07 02:28:52;0.00;0.00;0.62;0.00;0.00;0.62;4.03;2.57;;;21.30;27.50;;;;;;2262197;61;20391;-60
2021/12/07 02:31:38;0.00;0.00;0.62;0.00;0.00;0.62;2.90;2.53;;;21.30;27.50;;;;;;2264864;61;20421;-62
2021/12/07 02:34:24;0.00;0.00;0.62;0.00;0.00;0.62;3.10;2.63;;;21.30;27.50;;;;;;2261944;61;20352;-58
2021/12/07 02:37:10;0.00;0.00;0.62;0.00;0.00;0.62;3.83;2.83;;;21.20;27.40;;;;;;2261931;61;20381;-57
2021/12/07 02:39:58;0.00;0.00;0.62;0.00;0.00;0.62;4.50;2.90;;;21.30;27.50;;;;;;2261564;61;20389;-58
2021/12/07 02:42:44;0.00;0.00;0.62;0.00;0.00;0.62;4.10;3.30;;;21.20;27.40;;;;;;2262132;61;20481;-59
2021/12/07 02:45:30;0.00;0.00;0.62;0.00;0.00;0.62;4.80;4.07;;;21.30;27.50;;;;;;2262072;61;20353;-59
2021/12/07 02:48:14;0.00;0.00;0.62;0.00;0.00;0.62;4.57;3.60;;;21.20;27.40;;;;;;2265355;61;20384;-59
2021/12/07 02:50:59;0.00;0.00;0.62;0.00;0.00;0.62;4.40;3.40;;;21.20;27.30;;;;;;2266376;61;20457;-59
2021/12/07 02:53:47;0.00;0.00;0.62;0.00;0.00;0.62;4.30;3.00;;;21.20;27.20;;;;;;2262746;61;20630;-59
2021/12/07 02:56:33;0.00;0.00;0.62;0.00;0.00;0.62;4.50;3.40;;;21.20;27.20;;;;;;2262618;61;20345;-59
2021/12/07 02:59:20;0.00;0.00;0.62;0.00;0.00;0.62;6.13;4.20;;;21.20;27.10;;;;;;2262431;61;20447;-59
2021/12/07 03:02:08;0.00;0.00;0.62;0.00;0.00;0.62;4.90;4.23;;;21.20;27.00;;;;;;2262759;61;20364;-59
2021/12/07 03:05:06;0.00;0.00;0.62;0.00;0.00;0.62;5.77;4.30;;;21.20;27.00;;;;;;2262893;61;20416;-58
2021/12/07 03:26:22;0.00;0.00;0.62;0.00;0.00;0.62;8.00;5.93;;;21.00;26.50;;;;;;2262807;61;20360;-58
2021/12/07 03:29:08;0.00;0.00;0.62;0.00;0.00;0.62;6.07;4.80;;;21.00;26.40;;;;;;2262304;61;20361;-59
2021/12/07 03:31:53;0.00;0.00;0.62;0.00;0.00;0.62;7.47;6.00;;;20.90;26.30;;;;;;2262680;61;20369;-59
2021/12/07 03:34:38;0.00;0.00;0.62;0.00;0.00;0.62;6.63;5.03;;;20.90;26.20;;;;;;2262829;61;20376;-58
2021/12/07 03:37:23;0.00;0.00;0.62;0.00;0.00;0.62;6.60;5.10;;;20.90;26.30;;;;;;2259674;61;20372;-58
2021/12/07 03:40:11;0.00;0.00;0.62;0.00;0.00;0.62;5.23;4.73;;;20.90;26.30;;;;;;2262172;61;20481;-59
2021/12/07 03:42:56;0.00;0.00;0.62;0.00;0.00;0.62;5.40;4.30;;;20.90;26.40;;;;;;2266024;61;20388;-59
2021/12/07 03:45:43;0.00;0.00;0.62;0.00;0.00;0.62;5.20;4.70;;;20.80;26.30;;;;;;2262575;61;20380;-59
2021/12/07 03:48:29;0.00;0.00;0.62;0.00;0.00;0.62;6.10;4.43;;;20.80;26.30;;;;;;2265370;61;20419;-59
2021/12/07 03:51:14;0.00;0.00;0.62;0.00;0.00;0.62;5.57;4.37;;;20.80;26.30;;;;;;2262316;61;20404;-59
2021/12/07 03:53:59;0.00;0.00;0.62;0.00;0.00;0.62;6.17;5.23;;;20.80;26.40;;;;;;2265836;61;20368;-59
2021/12/07 03:56:44;0.00;0.00;0.62;0.00;0.00;0.62;6.33;4.90;;;20.80;26.30;;;;;;2262630;61;20392;-59
2021/12/07 03:59:28;0.00;0.00;0.62;0.00;0.00;0.62;5.90;5.27;;;20.70;26.30;;;;;;2262143;61;20927;-59
2021/12/07 04:02:14;0.00;0.00;0.62;0.00;0.00;0.62;7.43;5.23;;;20.70;26.30;;;;;;2262353;61;20408;-59
2021/12/07 04:05:01;0.00;0.00;0.62;0.00;0.00;0.62;6.63;5.37;;;20.70;26.30;;;;;;2265989;61;20808;-58
2021/12/07 04:07:51;0.00;0.00;0.62;0.00;0.00;0.62;5.67;4.97;;;20.70;26.30;;;;;;2262324;61;20344;-59
2021/12/07 04:10:36;0.00;0.00;0.62;0.00;0.00;0.62;5.73;5.13;;;20.70;26.30;;;;;;2262358;61;20388;-59
2021/12/07 04:13:21;0.00;0.00;0.62;0.00;0.00;0.62;5.83;4.87;;;20.60;26.10;;;;;;2265441;61;20360;-59
2021/12/07 04:16:08;0.00;0.00;0.62;0.00;0.00;0.62;6.63;5.40;;;20.60;26.20;;;;;;2262668;61;20371;-59
2021/12/07 04:18:54;0.00;0.00;0.62;0.00;0.00;0.62;6.87;5.03;;;20.60;26.20;;;;;;2262360;61;20372;-60
2021/12/07 04:21:38;0.00;0.00;0.62;0.00;0.00;0.62;5.83;4.77;;;20.60;26.20;;;;;;2262221;61;20741;-59
2021/12/07 04:24:27;0.00;0.00;0.62;0.00;0.00;0.62;6.00;4.53;;;20.60;26.20;;;;;;2262150;61;20395;-58
2021/12/07 04:27:11;0.00;0.00;0.62;0.00;0.00;0.62;5.40;4.83;;;20.60;26.20;;;;;;2262788;61;20430;-59
2021/12/07 04:29:56;0.00;0.00;0.62;0.00;0.00;0.62;6.10;4.63;;;20.60;26.20;;;;;;2265284;61;20373;-58
2021/12/07 04:32:41;0.00;0.00;0.62;0.00;0.00;0.62;6.30;4.97;;;20.60;26.20;;;;;;2265671;61;20424;-60
2021/12/07 04:35:28;0.00;0.00;0.62;0.00;0.00;0.62;6.20;5.20;;;20.50;26.10;;;;;;2265502;61;20353;-59
2021/12/07 04:38:14;0.00;0.00;0.62;0.00;0.00;0.62;4.80;4.33;;;20.50;26.10;;;;;;2265388;61;20378;-59
2021/12/07 04:40:59;0.00;0.00;0.62;0.00;0.00;0.62;5.43;4.93;;;20.50;26.10;;;;;;2262588;61;20389;-58
2021/12/07 04:43:46;0.00;0.00;0.62;0.00;0.00;0.62;6.80;5.10;;;20.50;26.10;;;;;;2265420;61;20744;-57
2021/12/07 04:46:41;0.00;0.00;0.62;0.00;0.00;0.62;5.87;5.30;;;20.40;26.00;;;;;;2262207;61;20566;-59
2021/12/07 04:58:18;0.00;0.00;0.62;0.00;0.00;0.62;5.57;5.00;;;20.40;26.00;;;;;;2265322;61;20568;-59
2021/12/07 05:01:09;0.00;0.00;0.62;0.00;0.00;0.62;6.33;4.57;;;20.40;26.10;;;;;;2265797;61;20609;-59
2021/12/07 05:03:56;0.00;0.00;0.62;0.00;0.00;0.62;6.50;5.47;;;20.30;26.00;;;;;;2265931;61;20364;-59
2021/12/07 05:06:48;0.00;0.00;0.62;0.00;0.00;0.62;5.20;4.60;;;20.30;26.10;;;;;;2265235;61;20365;-59
2021/12/07 05:10:07;0.00;0.00;0.62;0.00;0.00;0.62;6.23;4.67;;;20.30;26.10;;;;;;2265377;61;20380;-61
2021/12/07 05:12:56;0.00;0.00;0.62;0.00;0.00;0.62;5.17;4.67;;;20.30;26.10;;;;;;2265367;61;20491;-59
2021/12/07 05:24:23;0.00;0.00;0.62;0.00;0.00;0.62;5.97;5.20;;;20.20;26.00;;;;;;2265483;61;20709;-60
2021/12/07 05:39:27;0.00;0.00;0.62;0.00;0.00;0.62;5.80;4.63;;;20.10;26.00;;;;;;2265352;61;20385;-60
2021/12/07 05:42:13;0.00;0.00;0.62;0.00;0.00;0.62;6.47;5.30;;;20.20;26.00;;;;;;2265194;61;20365;-59
2021/12/07 05:44:58;0.00;0.00;0.62;0.00;0.00;0.62;7.47;5.30;;;20.10;25.90;;;;;;2265439;61;20384;-58
2021/12/07 05:47:43;0.00;0.00;0.62;0.00;0.00;0.62;6.10;5.00;;;20.10;25.90;;;;;;2262307;61;20774;-59
2021/12/07 05:50:31;0.00;0.00;0.62;0.00;0.00;0.62;8.13;5.37;;;20.10;25.90;;;;;;2265045;61;20369;-60
2021/12/07 05:53:15;0.00;0.00;0.62;0.00;0.00;0.62;7.80;5.83;;;20.10;25.90;;;;;;2265124;61;20400;-59
2021/12/07 05:56:01;0.00;0.00;0.62;0.00;0.00;0.62;6.10;4.93;;;20.00;25.90;;;;;;2265675;61;20353;-58
2021/12/07 05:58:46;0.00;0.00;0.62;0.00;0.00;0.62;6.07;4.70;;;20.00;25.80;;;;;;2265243;61;20384;-59
2021/12/07 06:01:31;0.00;0.00;0.62;0.00;0.00;0.62;5.93;4.67;;;20.00;25.80;;;;;;2265570;61;20703;-59
2021/12/07 06:04:15;0.00;0.00;0.62;0.00;0.00;0.62;5.13;4.63;;;20.00;25.90;;;;;;2265230;61;20629;-59
2021/12/07 06:07:00;0.00;0.00;0.62;0.00;0.00;0.62;5.53;4.80;;;20.00;25.90;;;;;;2265414;61;20384;-59
2021/12/07 06:09:44;0.00;0.00;0.62;0.00;0.00;0.62;5.27;4.37;;;19.90;25.80;;;;;;2265206;61;20606;-59
2021/12/07 06:12:29;0.00;0.00;0.62;0.00;0.00;0.62;4.90;4.10;;;19.90;25.80;;;;;;2265246;61;20479;-59
2021/12/07 06:15:18;0.00;0.00;0.62;0.00;0.00;0.62;5.53;4.83;;;19.90;25.80;;;;;;2265410;61;20368;-59
2021/12/07 06:18:04;0.00;0.00;0.62;0.00;0.00;0.62;6.63;5.97;;;19.90;25.80;;;;;;2266440;61;20368;-58
2021/12/07 06:20:49;0.00;0.00;0.62;0.00;0.00;0.62;7.60;5.53;;;19.90;25.80;;;;;;2266050;61;20492;-59
2021/12/07 06:23:33;0.00;0.00;0.62;0.00;0.00;0.62;6.57;5.00;;;19.90;25.90;;;;;;2265944;61;20357;-59
2021/12/07 06:26:18;0.00;0.00;0.62;0.00;0.00;0.62;5.73;5.00;;;19.90;25.80;;;;;;2265891;61;20575;-57
2021/12/07 06:29:03;0.00;0.00;0.62;0.00;0.00;0.62;9.20;6.53;;;19.80;25.70;;;;;;2265822;61;20336;-58
2021/12/07 06:31:49;0.00;0.00;0.62;0.00;0.00;0.62;6.47;5.80;;;19.80;25.70;;;;;;2266038;61;20381;-59
2021/12/07 06:34:34;0.00;0.00;0.62;0.00;0.00;0.62;7.53;5.50;;;19.80;25.70;;;;;;2265806;61;20366;-59
2021/12/07 06:37:19;0.00;0.00;0.62;0.00;0.00;0.62;8.33;5.87;;;19.80;25.70;;;;;;2265839;61;20357;-57
2021/12/07 06:40:07;0.00;0.00;0.62;0.00;0.00;0.62;5.93;5.33;;;19.70;25.60;;;;;;2266135;61;20393;-59
2021/12/07 06:42:52;0.00;0.00;0.62;0.00;0.00;0.62;6.10;5.17;;;19.70;25.50;;;;;;2265916;61;20392;-59
2021/12/07 06:45:36;0.00;0.00;0.62;0.00;0.00;0.62;8.57;5.63;;;19.70;25.50;;;;;;2265899;61;20352;-59
2021/12/07 06:48:23;0.00;0.00;0.62;0.00;0.00;0.62;5.60;5.10;;;19.60;25.50;;;;;;2262530;61;20351;-59
2021/12/07 06:51:08;0.00;0.00;0.62;0.00;0.00;0.62;6.73;5.53;;;19.60;25.50;;;;;;2265920;61;20586;-59
2021/12/07 06:53:53;0.00;0.00;0.62;0.00;0.00;0.62;6.83;5.30;;;19.50;25.50;;;;;;2265852;61;20408;-59
2021/12/07 06:56:37;0.00;0.00;0.62;0.00;0.00;0.62;7.30;5.67;;;19.50;25.40;;;;;;2265767;61;20360;-59
2021/12/07 06:59:22;0.00;0.00;0.62;0.00;0.00;0.62;5.87;5.27;;;19.50;25.40;;;;;;2265729;61;20507;-60
2021/12/07 07:02:07;0.00;0.00;0.62;0.00;0.00;0.62;7.27;6.30;;;19.50;25.50;;;;;;2266505;61;20353;-59
2021/12/07 07:04:54;0.00;0.00;0.62;0.00;0.00;0.62;6.97;5.90;;;19.40;25.40;;;;;;2265711;61;20422;-60
2021/12/07 07:07:40;0.00;0.00;0.62;0.00;0.00;0.62;5.97;5.30;;;19.40;25.50;;;;;;2265568;61;20357;-58
2021/12/07 07:10:25;0.00;0.00;0.62;0.00;0.00;0.62;5.83;5.20;;;19.40;25.60;;;;;;2265692;61;20589;-57
2021/12/07 07:13:09;0.00;0.00;0.62;0.00;0.00;0.62;5.93;4.90;;;19.40;25.60;;;;;;2265948;61;20396;-59
2021/12/07 07:15:54;0.00;0.00;0.62;0.00;0.00;0.62;6.17;5.57;;;19.30;25.60;;;;;;2266044;61;20412;-60
2021/12/07 07:18:39;0.00;0.00;0.62;0.00;0.00;0.62;6.10;5.30;;;19.30;25.70;;;;;;2265388;61;20361;-60
2021/12/07 07:21:26;0.00;0.00;0.62;0.00;0.00;0.62;6.93;5.07;;;19.30;25.70;;;;;;2265818;61;20789;-60
2021/12/07 07:24:11;0.00;0.00;0.62;0.00;0.00;0.62;6.40;5.20;;;19.30;25.70;;;;;;2266142;61;20357;-60
2021/12/07 07:26:56;0.00;0.00;0.62;0.00;0.00;0.62;5.90;5.30;;;19.30;25.70;;;;;;2265321;61;20365;-60
2021/12/07 07:29:41;0.00;0.00;0.62;0.00;0.00;0.62;5.47;4.90;;;19.30;25.70;;;;;;2262344;61;20380;-60
2021/12/07 07:32:25;0.00;0.00;0.62;0.00;0.00;0.62;6.97;5.87;;;19.30;25.70;;;;;;2265926;61;20407;-60
2021/12/07 07:35:11;0.00;0.00;0.62;0.00;0.00;0.62;6.07;5.40;;;19.30;25.70;;;;;;2265846;61;20357;-59
2021/12/07 07:37:57;0.00;0.00;0.62;0.00;0.00;0.62;6.20;5.60;;;19.30;25.80;;;;;;2266185;61;20582;-60
2021/12/07 07:40:46;0.00;0.00;0.62;0.00;0.00;0.62;8.47;6.57;;;19.30;25.70;;;;;;2265559;61;20381;-61
2021/12/07 07:43:31;0.00;0.00;0.62;0.00;0.00;0.62;6.80;5.83;;;19.30;25.60;;;;;;2266066;61;20396;-61
2021/12/07 07:46:34;0.00;0.00;0.62;0.00;0.00;0.62;7.13;6.27;;;19.20;25.40;;;;;;2263216;61;20353;-58
2021/12/07 07:49:19;0.00;0.00;0.62;0.00;0.00;0.62;7.60;6.37;;;19.20;25.40;;;;;;2265360;61;20705;-63
2021/12/07 07:52:04;0.00;0.00;0.62;0.00;0.00;0.62;9.00;6.23;;;19.20;25.50;;;;;;2265556;61;20571;-61
2021/12/07 07:54:50;0.00;0.00;0.62;0.00;0.00;0.62;10.50;6.97;;;19.20;25.60;;;;;;2265671;61;20365;-61
2021/12/07 07:57:35;0.00;0.00;0.62;0.00;0.00;0.62;7.73;6.60;;;19.20;25.60;;;;;;2262673;61;20361;-60
2021/12/07 08:00:21;0.00;0.00;0.62;0.00;0.00;0.62;7.23;6.50;;;19.10;25.50;;;;;;2265605;61;20492;-59
2021/12/07 08:03:06;0.00;0.00;0.62;0.00;0.00;0.62;6.53;5.93;;;19.10;25.40;;;;;;2265503;61;20717;-58
2021/12/07 08:05:51;0.00;0.00;0.62;0.00;0.00;0.62;6.53;4.93;;;19.10;25.40;;;;;;2265870;61;20407;-62
2021/12/07 08:08:40;0.00;0.00;0.62;0.00;0.00;0.62;8.33;6.17;;;19.00;25.50;;;;;;2262627;61;20712;-60
2021/12/07 08:11:26;0.00;0.00;0.62;0.00;0.00;0.62;7.70;6.60;;;19.10;25.60;;;;;;2265529;61;20422;-61
2021/12/07 08:14:10;0.00;0.00;0.62;0.00;0.00;0.62;7.33;6.40;;;19.00;25.50;;;;;;2265571;61;20476;-62
2021/12/07 08:16:55;0.00;0.00;0.62;0.00;0.00;0.62;7.80;7.00;;;19.00;25.40;;;;;;2265529;55;20458;-61
2021/12/07 08:19:40;0.00;0.00;0.62;0.00;0.00;0.62;8.07;6.33;;;18.90;25.30;;;;;;2268881;61;20517;-59
2021/12/07 08:22:24;0.00;0.00;0.62;0.00;0.00;0.62;7.23;6.53;;;18.90;25.20;;;;;;2265770;61;20432;-58
2021/12/07 08:25:09;0.00;0.00;0.62;0.00;0.00;0.62;7.17;5.50;;;18.90;25.30;;;;;;2262304;61;20697;-59
2021/12/07 08:27:56;0.00;0.00;0.62;0.00;0.00;0.62;10.83;6.30;;;18.90;25.40;;;;;;2265763;61;20577;-58
2021/12/07 08:30:42;0.00;0.00;0.62;0.00;0.00;0.62;6.43;5.40;;;18.80;25.50;;;;;;2265565;61;20605;-58
2021/12/07 08:33:30;0.00;0.00;0.62;0.00;0.00;0.62;7.50;4.50;;;18.80;25.60;;;;;;2262437;61;20631;-63
2021/12/07 08:36:15;0.00;0.00;0.62;0.00;0.00;0.62;5.97;4.73;;;18.80;25.60;;;;;;2265538;61;20380;-60
2021/12/07 08:39:00;0.00;0.00;0.62;0.00;0.00;0.62;5.67;5.10;;;18.80;25.60;;;;;;2265433;61;20404;-62
2021/12/07 08:41:44;0.00;0.00;0.62;0.00;0.00;0.62;7.57;6.27;;;18.80;25.70;;;;;;2265708;61;20795;-60
2021/12/07 08:44:30;0.00;0.00;0.62;0.00;0.00;0.62;8.83;6.50;;;18.80;25.80;;;;;;2265668;61;20362;-62
2021/12/07 08:47:15;0.00;0.00;0.62;0.00;0.00;0.62;7.20;5.90;;;18.70;25.70;;;;;;2262326;61;20361;-61
2021/12/07 08:50:00;0.00;0.00;0.62;0.00;0.00;0.62;6.97;5.60;;;18.80;25.70;;;;;;2265511;61;20416;-61
2021/12/07 08:52:46;0.00;0.00;0.62;0.00;0.00;0.62;6.83;5.70;;;18.80;25.70;;;;;;2265232;61;20380;-65
2021/12/07 09:01:43;0.00;0.00;0.62;0.00;0.00;0.62;6.07;5.47;;;18.70;25.70;;;;;;2265356;61;20748;-62
2021/12/07 09:04:27;0.00;0.00;0.62;0.00;0.00;0.62;5.90;5.30;;;18.70;25.70;;;;;;2265451;61;20487;-62
2021/12/07 09:07:13;0.00;0.00;0.62;0.00;0.00;0.62;7.10;5.83;;;18.70;25.70;;;;;;2265447;61;20361;-62
2021/12/07 09:09:57;0.00;0.00;0.62;0.00;0.00;0.62;5.17;4.67;;;18.60;25.70;;;;;;2265014;61;20372;-61
2021/12/07 09:12:42;0.00;0.00;0.62;0.00;0.00;0.62;7.27;5.27;;;18.60;25.60;;;;;;2265312;61;20380;-59
2021/12/07 09:15:27;0.00;0.00;0.62;0.00;0.00;0.62;5.50;4.70;;;18.60;25.60;;;;;;2265655;61;20566;-58
2021/12/07 09:18:13;0.00;0.00;0.62;0.00;0.00;0.62;5.00;4.40;;;18.60;25.60;;;;;;2264858;61;20377;-57
2021/12/07 09:20:59;0.00;0.00;0.62;0.00;0.00;0.62;5.27;4.20;;;18.60;25.60;;;;;;2265036;61;20460;-61
2021/12/07 09:23:44;0.00;0.00;0.62;0.00;0.00;0.62;4.03;3.63;;;18.60;25.60;;;;;;2265189;61;20399;-58
2021/12/07 09:26:29;0.00;0.00;0.62;0.00;0.00;0.62;5.00;4.50;;;18.60;25.60;;;;;;2265093;61;20353;-61
2021/12/07 09:29:14;0.00;0.00;0.62;0.00;0.00;0.62;5.70;4.50;;;18.70;25.70;;;;;;2265142;61;20582;-62
2021/12/07 09:31:59;0.00;0.00;0.62;0.00;0.00;0.62;4.63;4.10;;;18.60;25.60;;;;;;2265345;61;20373;-60
2021/12/07 09:34:45;0.00;0.00;0.62;0.00;0.00;0.62;5.63;3.87;;;18.60;25.60;;;;;;2265366;61;20360;-61
2021/12/07 09:37:30;0.00;0.00;0.62;0.00;0.00;0.62;4.20;3.63;;;18.60;25.60;;;;;;2265622;61;20477;-60
2021/12/07 09:40:17;0.00;0.00;0.62;0.00;0.00;0.62;4.07;3.67;;;18.60;25.60;;;;;;2264706;61;20638;-59
2021/12/07 09:43:02;0.00;0.00;0.62;0.00;0.00;0.62;3.93;3.53;;;18.70;25.70;;;;;;2265071;61;20361;-61
2021/12/07 09:45:47;0.00;0.00;0.62;0.00;0.00;0.62;4.23;3.83;;;18.70;25.70;;;;;;2262241;61;20357;-61
2021/12/07 09:48:32;0.00;0.00;0.62;0.00;0.00;0.62;3.70;3.30;;;18.70;25.70;;;;;;2264714;61;20417;-61
2021/12/07 09:51:22;0.00;0.00;0.62;0.00;0.00;0.62;4.23;3.83;;;18.70;25.70;;;;;;2266030;61;20744;-61
2021/12/07 09:54:09;0.00;0.00;0.62;0.00;0.00;0.62;4.47;3.43;;;18.70;25.70;;;;;;2262716;61;20361;-61
2021/12/07 09:56:56;0.00;0.00;0.62;0.00;0.00;0.62;3.70;2.90;;;18.70;25.70;;;;;;2260119;61;20349;-61
2021/12/07 09:59:41;0.00;0.00;0.62;0.00;0.00;0.62;7.67;4.57;;;18.80;25.80;;;;;;2260204;61;20381;-61
2021/12/07 10:02:26;0.00;0.00;0.62;0.00;0.00;0.62;6.53;3.57;;;18.70;25.70;;;;;;2265430;61;20349;-62
2021/12/07 10:05:12;0.00;0.00;0.62;0.00;0.00;0.62;5.60;3.47;;;18.80;25.80;;;;;;2265935;61;20586;-62
2021/12/07 10:07:59;0.00;0.00;0.62;0.00;0.00;0.62;4.70;3.50;;;18.80;25.80;;;;;;2265817;61;20395;-62
2021/12/07 10:10:47;0.00;0.00;0.62;0.00;0.00;0.62;5.17;3.67;;;18.80;25.80;;;;;;2265545;61;20427;-62
2021/12/07 10:13:32;0.00;0.00;0.62;0.00;0.00;0.62;4.63;3.30;;;18.90;25.80;;;;;;2262991;61;20732;-59
2021/12/07 10:16:20;0.00;0.00;0.62;0.00;0.00;0.62;5.57;3.33;;;18.90;25.80;;;;;;2265745;61;20373;-58
2021/12/07 10:19:04;0.00;0.00;0.62;0.00;0.00;0.62;7.00;2.80;;;19.00;25.90;;;;;;2265735;61;20751;-62
2021/12/07 10:22:01;0.00;0.00;0.62;0.00;0.00;0.62;5.40;3.10;;;18.90;25.90;;;;;;2266292;61;20429;-59
2021/12/07 10:24:49;0.00;0.00;0.62;0.00;0.00;0.62;4.80;3.10;;;19.00;26.10;;;;;;2265459;61;20581;-61
2021/12/07 10:27:38;0.00;0.00;0.62;0.00;0.00;0.62;5.00;3.10;;;19.00;26.10;;;;;;2265467;61;20361;-62
2021/12/07 10:30:24;0.00;0.00;0.62;0.00;0.00;0.62;3.60;2.70;;;19.00;26.20;;;;;;2262314;61;20451;-62
2021/12/07 10:33:08;0.00;0.00;0.62;0.00;0.00;0.62;4.90;2.60;;;19.10;26.20;;;;;;2265605;61;20357;-60
2021/12/07 10:36:05;0.00;0.00;0.62;0.00;0.00;0.62;4.67;2.70;;;19.10;26.30;;;;;;2265920;61;20559;-62
2021/12/07 10:38:57;0.00;0.00;0.62;0.00;0.00;0.62;4.30;3.60;;;19.10;26.30;;;;;;2265139;61;20437;-62
2021/12/07 10:41:46;0.00;0.00;0.62;0.00;0.00;0.62;2.83;2.20;;;19.20;26.40;;;;;;2265771;61;20423;-57
2021/12/07 10:44:34;0.00;0.00;0.62;0.00;0.00;0.62;3.90;2.90;;;19.20;26.40;;;;;;2266241;61;20345;-60
2021/12/07 10:47:20;0.00;0.00;0.62;0.00;0.00;0.62;14.73;4.00;;;19.20;26.30;;;;;;2262614;61;20433;-59
2021/12/07 10:50:09;0.00;0.00;0.62;0.00;0.00;0.62;5.57;3.03;;;19.20;26.20;;;;;;2266078;61;20695;-59
2021/12/07 10:52:57;0.00;0.00;0.62;0.00;0.00;0.62;9.17;4.00;;;19.30;26.30;;;;;;2265783;61;20384;-55
2021/12/07 10:55:41;0.00;0.00;0.62;0.00;0.00;0.62;6.83;3.13;;;19.30;26.30;;;;;;2265788;61;20392;-57
2021/12/07 10:58:30;0.00;0.00;0.62;0.00;0.00;0.62;6.93;3.30;;;19.30;26.20;;;;;;2265753;61;20752;-59
2021/12/07 11:01:30;0.00;0.00;0.62;0.00;0.00;0.62;5.27;3.03;;;19.30;26.10;;;;;;2265367;61;20388;-56
2021/12/07 11:04:26;0.00;0.00;0.62;0.00;0.00;0.62;7.27;3.07;;;19.40;26.20;;;;;;2265695;61;20720;-59
2021/12/07 11:07:16;0.00;0.00;0.62;0.00;0.00;0.62;4.00;3.20;;;19.40;26.20;;;;;;2265752;61;20618;-59
2021/12/07 11:10:10;0.00;0.00;0.62;0.00;0.00;0.62;4.90;3.33;;;19.40;26.20;;;;;;2265240;61;20368;-60
2021/12/07 11:13:21;0.00;0.00;0.62;0.00;0.00;0.62;4.60;3.70;;;19.40;26.20;;;;;;2265840;61;20353;-56
2021/12/07 11:16:13;0.00;0.00;0.62;0.00;0.00;0.62;5.83;2.90;;;19.50;26.30;;;;;;2262039;61;20376;-59
2021/12/07 11:19:00;0.00;0.00;0.62;0.00;0.00;0.62;4.73;3.23;;;19.50;26.30;;;;;;2259231;61;20832;-59
2021/12/07 11:21:51;0.00;0.00;0.62;0.00;0.00;0.62;4.13;3.10;;;19.50;26.30;;;;;;2260012;61;20389;-59
2021/12/07 11:24:40;0.00;0.00;0.62;0.00;0.00;0.62;4.43;2.80;;;19.50;26.30;;;;;;2259759;61;20710;-58
2021/12/07 11:30:31;0.00;0.00;0.62;0.00;0.00;0.62;3.27;2.67;;;19.50;26.30;;;;;;2262048;61;20632;-60
2021/12/07 11:33:25;0.00;0.00;0.62;0.00;0.00;0.62;3.90;2.70;;;19.60;26.30;;;;;;2265785;61;20360;-59
2021/12/07 11:36:25;0.00;0.00;0.62;0.00;0.00;0.62;3.10;2.23;;;19.60;26.40;;;;;;2260253;61;20380;-59
2021/12/07 11:39:25;0.00;0.00;0.62;0.00;0.00;0.62;3.50;2.20;;;19.60;26.30;;;;;;2258946;61;20393;-59
2021/12/07 11:42:17;0.00;0.00;0.62;0.00;0.00;0.62;3.47;2.97;;;19.60;26.30;;;;;;2262648;61;20365;-59
2021/12/07 11:45:12;0.00;0.00;0.62;0.00;0.00;0.62;3.47;2.50;;;19.60;26.30;;;;;;2259486;61;20717;-59
2021/12/07 11:48:05;0.00;0.00;0.62;0.00;0.00;0.62;3.30;2.60;;;19.70;26.40;;;;;;2262435;61;20424;-58
2021/12/07 11:50:55;0.00;0.00;0.62;0.00;0.00;0.62;3.50;3.20;;;19.70;26.40;;;;;;2260204;61;20423;-59
2021/12/07 11:53:43;0.00;0.00;0.62;0.00;0.00;0.62;2.90;2.20;;;19.70;26.40;;;;;;2259183;61;20691;-59
2021/12/07 11:56:29;0.00;0.00;0.62;0.00;0.00;0.62;2.73;2.10;;;19.70;26.40;;;;;;2259868;61;20357;-57
2021/12/07 11:59:16;0.00;0.00;0.62;0.00;0.00;0.62;3.53;2.40;;;19.70;26.40;;;;;;2265420;61;20357;-58
2021/12/07 12:02:01;0.00;0.00;0.62;0.00;0.00;0.62;3.10;2.37;;;19.80;26.50;;;;;;2265579;61;20416;-59
2021/12/07 12:04:46;0.00;0.00;0.62;0.00;0.00;0.62;4.23;2.30;;;19.80;26.50;;;;;;2265684;61;20399;-56
2021/12/07 12:07:32;0.00;0.00;0.62;0.00;0.00;0.62;3.23;2.47;;;19.80;26.40;;;;;;2265389;61;20404;-60
2021/12/07 12:10:18;0.00;0.00;0.62;0.00;0.00;0.62;2.97;2.47;;;19.80;26.40;;;;;;2265540;61;20396;-57
2021/12/07 12:13:15;0.00;0.00;0.62;0.00;0.00;0.62;2.73;1.90;;;19.80;26.30;;;;;;2265793;61;20384;-57
2021/12/07 12:16:16;0.00;0.00;0.62;0.00;0.00;0.62;3.97;2.63;;;19.80;26.30;;;;;;2265305;61;20388;-60
2021/12/07 12:19:15;0.00;0.00;0.62;0.00;0.00;0.62;2.97;2.13;;;19.80;26.20;;;;;;2262761;61;20356;-60
2021/12/07 12:22:08;0.00;0.00;0.62;0.00;0.00;0.62;3.03;2.33;;;19.90;26.30;;;;;;2265480;61;20609;-59
2021/12/07 12:24:59;0.00;0.00;0.62;0.00;0.00;0.62;2.37;1.83;;;19.90;26.30;;;;;;2265546;61;20434;-56
2021/12/07 12:27:47;0.00;0.00;0.62;0.00;0.00;0.62;3.20;2.50;;;19.90;26.30;;;;;;2265849;61;20361;-57
2021/12/07 12:30:35;0.00;0.00;0.62;0.00;0.00;0.62;3.80;2.30;;;19.90;26.30;;;;;;2264999;61;20377;-60
2021/12/07 12:33:20;0.00;0.00;0.62;0.00;0.00;0.62;3.03;2.30;;;19.90;26.20;;;;;;2265572;61;20385;-58